Time;durP1;ratioP1;P1;durP2;ratioP2;P2;SDS_P1;SDS_P2;PMS_P1;PMS_P2;Temp;Humidity;BMP_temperature;BMP_pressure;BME280_temperature;BME280_humidity;BME280_pressure;Samples;Min_cycle;Max_cycle;Signal;HPM_P1;HPM_P2
2022/06/22 00:01:05;;;;;;;29.35;16.00;;;21.30;99.90;;;;;;5092589;28;20099;-74
2022/06/22 00:03:33;;;;;;;24.02;13.55;;;21.30;99.90;;;;;;5087799;28;20055;-73
2022/06/22 00:05:59;;;;;;;33.88;15.80;;;21.20;99.90;;;;;;5095299;28;20036;-72
2022/06/22 00:08:33;;;;;;;37.90;13.88;;;21.20;99.90;;;;;;5098001;28;20421;-73
2022/06/22 00:11:11;;;;;;;25.17;13.25;;;21.20;99.90;;;;;;5089027;28;20036;-73
2022/06/22 00:13:44;;;;;;;29.08;14.27;;;21.20;99.90;;;;;;5084118;28;20025;-73
2022/06/22 00:16:28;;;;;;;29.23;14.93;;;21.20;99.90;;;;;;5097350;28;20540;-74
2022/06/22 00:18:55;;;;;;;28.45;13.25;;;21.20;99.90;;;;;;5088288;28;20401;-73
2022/06/22 00:21:24;;;;;;;30.95;13.68;;;21.20;99.90;;;;;;5095082;28;20031;-73
2022/06/22 00:23:52;;;;;;;26.27;11.07;;;21.20;99.90;;;;;;5091235;28;20031;-73
2022/06/22 00:26:24;;;;;;;25.92;11.52;;;21.20;99.90;;;;;;5096808;28;20028;-74
2022/06/22 00:28:55;;;;;;;25.15;11.95;;;21.20;99.90;;;;;;5094218;28;20115;-73
2022/06/22 00:31:20;;;;;;;;;;;21.20;99.90;;;;;;5099339;28;20099;-74
2022/06/22 00:34:22;;;;;;;28.13;10.55;;;21.20;99.90;;;;;;5095637;28;19968;-74
2022/06/22 00:37:00;;;;;;;22.98;10.13;;;21.20;99.90;;;;;;5032101;28;20112;-73
2022/06/22 00:39:28;;;;;;;28.20;10.93;;;21.20;99.90;;;;;;5090013;28;20036;-73
2022/06/22 00:42:15;;;;;;;26.98;11.32;;;21.20;99.90;;;;;;5097833;28;20046;-73
2022/06/22 00:44:56;;;;;;;28.98;12.27;;;21.20;99.90;;;;;;5091812;28;20112;-73
2022/06/22 00:47:36;;;;;;;25.15;12.75;;;21.20;99.90;;;;;;5085673;28;20375;-73
2022/06/22 00:50:11;;;;;;;27.48;12.57;;;21.20;99.90;;;;;;5088069;28;20040;-73
2022/06/22 00:52:42;;;;;;;22.13;13.07;;;21.10;99.90;;;;;;5082979;28;20020;-73
2022/06/22 00:55:34;;;;;;;36.00;14.63;;;21.10;99.90;;;;;;5110963;28;20051;-73
2022/06/22 00:58:26;;;;;;;19.88;14.40;;;21.10;99.90;;;;;;5084692;28;20045;-73
2022/06/22 01:01:04;;;;;;;31.45;15.52;;;21.10;99.90;;;;;;5087418;28;20024;-74
2022/06/22 01:03:46;;;;;;;37.15;16.17;;;21.10;99.90;;;;;;5084821;28;20024;-73
2022/06/22 01:06:32;;;;;;;29.55;17.02;;;21.10;99.90;;;;;;5113657;28;20082;-73
2022/06/22 01:09:01;;;;;;;31.40;17.40;;;21.10;99.90;;;;;;5093719;28;20024;-73
2022/06/22 01:14:49;;;;;;;39.85;17.63;;;21.20;99.90;;;;;;5097760;28;20051;-73
2022/06/22 01:17:51;;;;;;;29.83;16.88;;;21.20;99.90;;;;;;5078968;28;20020;-73
2022/06/22 01:20:44;;;;;;;30.90;16.40;;;21.10;99.90;;;;;;5080360;28;20028;-72
2022/06/22 01:23:37;;;;;;;33.25;16.90;;;21.20;99.90;;;;;;5079802;28;20092;-73
2022/06/22 01:26:17;;;;;;;27.95;16.95;;;21.10;99.90;;;;;;5085870;28;20055;-73
2022/06/22 01:29:13;;;;;;;36.17;17.85;;;21.10;99.90;;;;;;5083917;28;20511;-73
2022/06/22 01:32:02;;;;;;;35.92;17.45;;;21.10;99.90;;;;;;5072331;28;20060;-72
2022/06/22 01:34:38;;;;;;;32.72;16.90;;;21.00;99.90;;;;;;5085523;28;20515;-73
2022/06/22 01:37:11;;;;;;;29.77;16.75;;;21.00;99.90;;;;;;5089167;28;20035;-73
2022/06/22 01:39:37;;;;;;;31.25;16.40;;;21.00;99.90;;;;;;5092193;28;20103;-73
2022/06/22 01:42:12;;;;;;;32.42;16.67;;;21.00;99.90;;;;;;5091491;28;20117;-73
2022/06/22 01:44:54;;;;;;;31.52;18.52;;;20.90;99.90;;;;;;5093593;28;20096;-73
2022/06/22 01:47:24;;;;;;;32.67;16.15;;;20.90;99.90;;;;;;5084181;28;20036;-73
2022/06/22 01:50:03;;;;;;;31.30;15.43;;;20.90;99.90;;;;;;5084273;28;20121;-73
2022/06/22 01:52:55;;;;;;;31.20;16.90;;;20.90;99.90;;;;;;5079295;28;20013;-73
2022/06/22 01:55:40;;;;;;;30.13;15.85;;;20.90;99.90;;;;;;5082470;28;20097;-73
2022/06/22 01:58:14;;;;;;;28.73;16.48;;;20.90;99.90;;;;;;5082575;28;20025;-74
2022/06/22 02:00:43;;;;;;;31.60;15.38;;;20.90;99.90;;;;;;5082672;28;20020;-72
2022/06/22 02:03:21;;;;;;;26.27;16.13;;;21.00;99.90;;;;;;5087389;28;20518;-73
2022/06/22 02:05:55;;;;;;;26.65;15.95;;;20.90;99.90;;;;;;5084709;28;20103;-73
2022/06/22 02:08:32;;;;;;;33.63;16.98;;;20.90;99.90;;;;;;5084222;28;20032;-74
2022/06/22 02:11:08;;;;;;;30.02;15.95;;;20.80;99.90;;;;;;5087058;28;20028;-73
2022/06/22 02:13:41;;;;;;;27.33;15.85;;;20.80;99.90;;;;;;5093931;28;20102;-73
2022/06/22 02:16:15;;;;;;;28.70;14.77;;;20.90;99.90;;;;;;5092494;28;20108;-73
2022/06/22 02:18:57;;;;;;;28.58;14.27;;;20.90;99.90;;;;;;5095607;28;20465;-74
2022/06/22 02:21:27;;;;;;;30.90;15.93;;;20.90;99.90;;;;;;5085102;28;20024;-74
2022/06/22 02:24:07;;;;;;;31.92;16.15;;;20.90;99.90;;;;;;5081627;28;20082;-73
2022/06/22 02:26:55;;;;;;;26.27;14.73;;;20.80;99.90;;;;;;5109701;28;20047;-73
2022/06/22 02:29:26;;;;;;;30.52;15.82;;;20.90;99.90;;;;;;5082071;28;20055;-73
2022/06/22 02:31:53;;;;;;;;;;;20.80;99.90;;;;;;5082052;28;20473;-73
2022/06/22 02:34:19;;;;;;;27.60;15.32;;;20.80;99.90;;;;;;5084290;28;20311;-74
2022/06/22 02:36:48;;;;;;;30.23;16.48;;;20.80;99.90;;;;;;5083276;28;20017;-73
2022/06/22 02:39:16;;;;;;;29.75;16.50;;;20.80;99.90;;;;;;5087295;28;20024;-73
2022/06/22 02:44:33;;;;;;;30.80;16.27;;;20.70;99.90;;;;;;5090115;28;20078;-73
2022/06/22 02:47:31;;;;;;;24.35;15.05;;;20.70;99.90;;;;;;5091240;28;20387;-73
2022/06/22 02:50:10;;;;;;;24.30;15.18;;;20.70;99.90;;;;;;5081020;28;20055;-73
2022/06/22 02:52:45;;;;;;;27.52;16.45;;;20.80;99.90;;;;;;5078551;28;20067;-74
2022/06/22 02:55:15;;;;;;;37.85;16.88;;;20.70;99.90;;;;;;5081412;28;20026;-73
2022/06/22 02:57:53;;;;;;;32.05;14.98;;;20.70;99.90;;;;;;5079360;28;20017;-73
2022/06/22 03:00:26;;;;;;;29.33;17.23;;;20.70;99.90;;;;;;5081179;28;20081;-73
2022/06/22 03:03:00;;;;;;;29.77;17.13;;;20.70;99.90;;;;;;5083247;28;20497;-73
2022/06/22 03:05:26;;;;;;;34.30;17.02;;;20.70;99.90;;;;;;5086394;28;20400;-73
2022/06/22 03:07:55;;;;;;;25.02;15.27;;;20.80;99.90;;;;;;5085711;28;20021;-73
2022/06/22 03:10:29;;;;;;;25.35;13.55;;;20.80;99.90;;;;;;5089680;28;20020;-73
2022/06/22 03:12:57;;;;;;;31.02;14.30;;;20.80;99.90;;;;;;5108968;28;20020;-73
2022/06/22 03:15:27;;;;;;;25.88;12.32;;;20.80;99.90;;;;;;5085349;28;20024;-73
2022/06/22 03:17:56;;;;;;;23.05;12.15;;;20.80;99.90;;;;;;5109207;28;20063;-73
2022/06/22 03:20:26;;;;;;;19.25;10.32;;;20.80;99.90;;;;;;5086844;28;20054;-74
2022/06/22 03:22:58;;;;;;;23.60;10.45;;;20.80;99.90;;;;;;5094367;28;20020;-74
2022/06/22 03:25:52;;;;;;;19.17;7.65;;;20.70;99.90;;;;;;5096884;28;20028;-73
2022/06/22 03:28:34;;;;;;;25.75;9.52;;;20.70;99.90;;;;;;5073691;28;20036;-72
2022/06/22 03:31:08;;;;;;;17.52;8.25;;;20.60;99.90;;;;;;5078781;28;20096;-72
2022/06/22 03:34:04;;;;;;;15.13;8.77;;;20.40;99.90;;;;;;5083249;28;20108;-72
2022/06/22 03:36:43;;;;;;;15.93;7.97;;;20.30;99.90;;;;;;5084798;28;20031;-72
2022/06/22 03:39:14;;;;;;;19.85;9.07;;;20.20;99.90;;;;;;5091474;28;20099;-73
2022/06/22 03:41:47;;;;;;;15.25;8.73;;;20.10;99.90;;;;;;5088615;28;20031;-72
2022/06/22 03:44:22;;;;;;;19.17;10.23;;;20.00;99.90;;;;;;5094746;28;20024;-72
2022/06/22 03:47:01;;;;;;;13.15;8.85;;;20.00;99.90;;;;;;5092534;28;20103;-73
2022/06/22 03:49:31;;;;;;;16.90;9.50;;;19.90;99.90;;;;;;5088935;28;20089;-72
2022/06/22 03:52:17;;;;;;;23.65;10.38;;;19.80;99.90;;;;;;5082377;28;20400;-71
2022/06/22 03:54:56;;;;;;;23.17;10.77;;;19.70;99.90;;;;;;5083890;28;20115;-72
2022/06/22 03:57:27;;;;;;;15.85;10.05;;;19.70;99.90;;;;;;5083944;28;20020;-72
2022/06/22 03:59:55;;;;;;;18.02;10.02;;;19.60;99.90;;;;;;5093870;28;20387;-72
2022/06/22 04:02:24;;;;;;;17.35;10.30;;;19.50;99.90;;;;;;5097604;28;20020;-73
2022/06/22 04:04:53;;;;;;;19.35;10.38;;;19.40;99.90;;;;;;5098771;28;20491;-72
2022/06/22 04:07:19;;;;;;;17.20;11.13;;;19.30;99.90;;;;;;5092703;28;20512;-72
2022/06/22 04:09:52;;;;;;;22.77;12.32;;;19.20;99.90;;;;;;5093799;28;20035;-72
2022/06/22 04:12:22;;;;;;;17.98;10.98;;;19.20;99.90;;;;;;5090117;28;20016;-72
2022/06/22 04:14:59;;;;;;;16.33;12.13;;;19.10;99.90;;;;;;5085255;28;20495;-72
2022/06/22 04:17:42;;;;;;;25.63;13.35;;;19.00;99.90;;;;;;5097216;28;20028;-72
2022/06/22 04:20:50;;;;;;;21.67;13.52;;;19.00;99.90;;;;;;5098638;28;20016;-73
2022/06/22 04:23:32;;;;;;;21.38;12.85;;;18.90;99.90;;;;;;5087906;28;20120;-72
2022/06/22 04:26:10;;;;;;;16.60;12.82;;;18.90;99.90;;;;;;5081010;28;20034;-72
2022/06/22 04:28:38;;;;;;;21.85;13.77;;;18.90;99.90;;;;;;5080327;28;20086;-72
2022/06/22 04:31:06;;;;;;;21.60;13.27;;;18.90;99.90;;;;;;5084412;28;20562;-72
2022/06/22 04:33:40;;;;;;;26.85;15.20;;;18.90;99.90;;;;;;5092859;28;20031;-72
2022/06/22 04:36:15;;;;;;;23.05;13.55;;;19.00;99.90;;;;;;5088100;28;20025;-72
2022/06/22 04:38:57;;;;;;;19.05;15.02;;;19.00;99.90;;;;;;5088731;28;20020;-72
2022/06/22 04:41:32;;;;;;;26.45;15.07;;;19.10;99.90;;;;;;5088599;28;20009;-72
2022/06/22 04:44:03;;;;;;;22.65;13.65;;;19.10;99.90;;;;;;5085481;28;20390;-72
2022/06/22 04:46:36;;;;;;;23.35;14.45;;;19.20;99.90;;;;;;5091629;28;20103;-72
2022/06/22 04:49:21;;;;;;;18.98;13.07;;;19.30;99.90;;;;;;5096271;28;20131;-72
2022/06/22 04:52:03;;;;;;;20.88;14.65;;;19.20;99.90;;;;;;5095603;28;20075;-72
2022/06/22 04:54:38;;;;;;;17.60;13.40;;;19.30;99.90;;;;;;5096459;28;20020;-72
2022/06/22 04:57:21;;;;;;;17.92;13.70;;;19.30;99.90;;;;;;5079665;28;20015;-72
2022/06/22 04:59:49;;;;;;;21.30;13.82;;;19.40;99.90;;;;;;5110938;28;20051;-72
2022/06/22 05:02:18;;;;;;;18.13;13.93;;;19.50;99.90;;;;;;5081347;28;20027;-72
2022/06/22 05:04:49;;;;;;;25.53;15.20;;;19.60;99.90;;;;;;5110934;28;20032;-72
2022/06/22 05:07:40;;;;;;;21.02;13.18;;;19.70;99.90;;;;;;5089431;28;20323;-72
2022/06/22 05:10:14;;;;;;;20.00;12.75;;;19.70;99.90;;;;;;5089527;28;20124;-72
2022/06/22 05:12:54;;;;;;;16.45;13.82;;;19.80;99.90;;;;;;5088928;28;20450;-72
2022/06/22 05:15:26;;;;;;;22.00;13.85;;;19.90;99.90;;;;;;5091032;28;20101;-72
2022/06/22 05:17:53;;;;;;;25.27;14.27;;;19.90;99.90;;;;;;5098493;28;20489;-72
2022/06/22 05:20:47;;;;;;;22.58;13.82;;;20.00;99.90;;;;;;5096970;28;20448;-72
2022/06/22 05:23:14;;;;;;;18.70;13.02;;;20.00;99.90;;;;;;5082093;28;20525;-72
2022/06/22 05:25:43;;;;;;;24.50;14.65;;;20.00;99.90;;;;;;5095996;28;20033;-72
2022/06/22 05:28:15;;;;;;;19.98;14.65;;;19.90;99.90;;;;;;5096933;28;20404;-72
2022/06/22 05:30:53;;;;;;;33.00;15.55;;;19.90;99.90;;;;;;5081178;28;20047;-72
2022/06/22 05:33:24;;;;;;;21.17;13.95;;;19.90;99.90;;;;;;5091018;28;20046;-72
2022/06/22 05:36:02;;;;;;;20.85;14.10;;;20.00;99.90;;;;;;5082061;28;20027;-72
2022/06/22 05:38:29;;;;;;;19.20;13.88;;;19.90;99.90;;;;;;5083583;28;20024;-72
2022/06/22 05:40:57;;;;;;;21.88;15.05;;;19.90;99.90;;;;;;5085067;28;20024;-72
2022/06/22 05:43:24;;;;;;;21.90;13.45;;;19.90;99.90;;;;;;5085240;28;20017;-72
2022/06/22 05:45:54;;;;;;;19.75;13.68;;;19.90;99.90;;;;;;5088416;28;20023;-72
2022/06/22 05:48:24;;;;;;;16.85;13.05;;;19.90;99.90;;;;;;5096311;28;20031;-72
2022/06/22 05:50:58;;;;;;;19.80;13.60;;;19.90;99.90;;;;;;5093292;28;20115;-72
2022/06/22 05:53:54;;;;;;;20.75;12.88;;;19.90;99.90;;;;;;5078856;28;20017;-72
2022/06/22 05:56:26;;;;;;;24.35;13.98;;;19.90;99.90;;;;;;5088957;28;20111;-72
2022/06/22 05:58:56;;;;;;;20.90;13.40;;;20.00;99.90;;;;;;5093402;28;20020;-72
2022/06/22 06:01:36;;;;;;;21.37;13.60;;;20.10;99.90;;;;;;5089465;28;20067;-72
2022/06/22 06:04:21;;;;;;;21.83;14.63;;;20.30;99.90;;;;;;5096123;28;20046;-72
2022/06/22 06:06:48;;;;;;;25.13;13.00;;;20.50;99.90;;;;;;5083875;28;20024;-73
2022/06/22 06:09:23;;;;;;;18.35;12.65;;;20.80;99.90;;;;;;5096774;28;20542;-72
2022/06/22 06:11:57;;;;;;;22.40;12.75;;;20.90;99.90;;;;;;5078627;28;20013;-73
2022/06/22 06:14:30;;;;;;;18.35;13.00;;;21.00;99.90;;;;;;5080673;28;20020;-72
2022/06/22 06:17:01;;;;;;;25.40;12.90;;;21.00;99.90;;;;;;5117268;27;20028;-73
2022/06/22 06:19:32;;;;;;;23.70;12.95;;;20.90;99.90;;;;;;5084502;28;20441;-72
2022/06/22 06:22:01;;;;;;;17.50;12.10;;;20.90;99.90;;;;;;5089255;28;20020;-73
2022/06/22 06:27:34;;;;;;;24.33;13.65;;;20.80;99.90;;;;;;5094679;28;20036;-73
2022/06/22 06:27:38;;;;;;;19.17;13.32;;;20.60;99.90;;;;;;5093555;28;20507;-72
2022/06/22 06:30:19;;;;;;;21.55;14.10;;;20.60;99.90;;;;;;5089132;28;20024;-73
2022/06/22 06:33:07;;;;;;;19.92;13.80;;;20.50;99.90;;;;;;5091231;28;20488;-73
2022/06/22 06:35:38;;;;;;;17.70;13.00;;;20.50;99.90;;;;;;5085460;28;20024;-73
2022/06/22 06:38:17;;;;;;;24.88;14.65;;;20.50;99.90;;;;;;5083702;28;20013;-73
2022/06/22 06:41:11;;;;;;;25.13;13.95;;;20.60;99.90;;;;;;5089069;28;20032;-73
2022/06/22 06:43:52;;;;;;;27.30;14.00;;;20.50;99.90;;;;;;5087846;28;20404;-72
2022/06/22 06:46:28;;;;;;;19.00;13.68;;;20.50;99.90;;;;;;5090016;28;20028;-73
2022/06/22 06:49:16;;;;;;;18.63;13.70;;;20.40;99.90;;;;;;5084272;28;20582;-72
2022/06/22 06:51:50;;;;;;;39.85;14.63;;;20.40;99.90;;;;;;5092912;28;20043;-73
2022/06/22 06:54:28;;;;;;;17.80;11.95;;;20.50;99.90;;;;;;5096169;28;20073;-72
2022/06/22 06:57:06;;;;;;;21.30;13.43;;;20.60;99.90;;;;;;5096906;28;20644;-72
2022/06/22 06:59:33;;;;;;;23.92;14.02;;;20.70;99.90;;;;;;5084662;28;20512;-73
2022/06/22 07:02:05;;;;;;;24.60;11.77;;;20.70;99.90;;;;;;5079373;28;20012;-73
2022/06/22 07:04:34;;;;;;;16.88;11.80;;;20.80;99.90;;;;;;5082177;28;20051;-73
2022/06/22 07:07:26;;;;;;;17.38;11.60;;;20.80;99.90;;;;;;5085978;28;20111;-73
2022/06/22 07:09:56;;;;;;;19.00;12.63;;;20.80;99.90;;;;;;5090043;28;20039;-72
2022/06/22 07:12:30;;;;;;;17.38;10.60;;;20.90;99.90;;;;;;5087600;28;20024;-72
2022/06/22 07:14:59;;;;;;;23.20;10.32;;;21.00;99.90;;;;;;5094399;28;20504;-72
2022/06/22 07:17:26;;;;;;;15.38;10.65;;;21.10;99.90;;;;;;5090204;28;20111;-72
2022/06/22 07:20:04;;;;;;;21.08;11.10;;;21.20;99.90;;;;;;5097134;28;20046;-73
2022/06/22 07:22:50;;;;;;;14.02;9.82;;;21.20;99.90;;;;;;5095625;28;20055;-72
2022/06/22 07:25:31;;;;;;;13.52;10.55;;;21.30;99.90;;;;;;5097549;28;20527;-73
2022/06/22 07:28:03;;;;;;;16.60;9.50;;;21.30;99.90;;;;;;5089448;28;20028;-72
2022/06/22 07:30:37;;;;;;;17.48;10.38;;;21.30;99.90;;;;;;5085805;28;20028;-72
2022/06/22 07:33:55;;;;;;;14.50;9.80;;;21.30;99.90;;;;;;5092347;28;20088;-72
2022/06/22 07:36:23;;;;;;;14.82;10.07;;;21.20;99.90;;;;;;5046540;28;20032;-72
2022/06/22 07:39:16;;;;;;;18.90;10.05;;;21.20;99.90;;;;;;5089528;28;20022;-72
2022/06/22 07:41:42;;;;;;;18.02;10.07;;;21.20;99.90;;;;;;5092217;28;20020;-72
2022/06/22 07:44:22;;;;;;;17.02;10.93;;;21.10;99.90;;;;;;5090808;28;20020;-72
2022/06/22 07:47:33;;;;;;;18.50;10.35;;;21.00;99.90;;;;;;5090815;28;20016;-72
2022/06/22 07:50:23;;;;;;;17.80;10.50;;;21.00;99.90;;;;;;5058471;28;20039;-72
2022/06/22 07:53:03;;;;;;;23.40;10.60;;;20.90;99.90;;;;;;5092513;28;20539;-71
2022/06/22 07:55:57;;;;;;;14.07;9.65;;;21.00;99.90;;;;;;5088060;28;20063;-72
2022/06/22 07:58:25;;;;;;;15.07;10.38;;;21.00;99.90;;;;;;5095262;28;20446;-72
2022/06/22 08:00:57;;;;;;;18.15;10.25;;;21.10;99.90;;;;;;5098997;28;20024;-72
2022/06/22 08:03:46;;;;;;;18.42;9.82;;;21.10;99.90;;;;;;5092425;28;20492;-72
2022/06/22 08:06:23;;;;;;;13.20;10.38;;;21.10;99.90;;;;;;5082038;28;20040;-72
2022/06/22 08:08:59;;;;;;;13.40;10.30;;;21.20;99.90;;;;;;5082139;28;20035;-72
2022/06/22 08:11:32;;;;;;;21.63;9.60;;;21.20;99.90;;;;;;5086364;28;20032;-72
2022/06/22 08:14:31;;;;;;;12.60;8.52;;;21.20;99.90;;;;;;5082781;28;20021;-72
2022/06/22 08:16:59;;;;;;;12.38;9.18;;;21.30;99.90;;;;;;5091415;28;20133;-72
2022/06/22 08:19:28;;;;;;;13.57;9.10;;;21.40;99.90;;;;;;5090671;28;20028;-72
2022/06/22 08:22:00;;;;;;;16.20;9.40;;;21.50;99.90;;;;;;5087181;28;20025;-72
2022/06/22 08:24:29;;;;;;;14.68;8.05;;;21.60;99.90;;;;;;5093493;28;20449;-72
2022/06/22 08:26:57;;;;;;;13.70;8.35;;;21.60;99.90;;;;;;5090022;28;20052;-72
2022/06/22 08:29:23;;;;;;;12.30;7.32;;;21.70;99.90;;;;;;5096227;28;20031;-73
2022/06/22 08:32:00;;;;;;;10.63;7.72;;;21.80;99.90;;;;;;5096611;28;20095;-72
2022/06/22 08:34:36;;;;;;;15.38;7.57;;;22.00;99.90;;;;;;5080802;28;20028;-72
2022/06/22 08:37:07;;;;;;;11.25;7.32;;;22.10;99.90;;;;;;5084495;28;20085;-72
2022/06/22 08:39:41;;;;;;;13.05;7.55;;;22.30;99.90;;;;;;5082626;28;20032;-72
2022/06/22 08:42:19;;;;;;;10.55;7.68;;;22.30;99.90;;;;;;5087634;28;20030;-73
2022/06/22 08:45:13;;;;;;;12.10;7.10;;;22.60;99.90;;;;;;5085500;28;20427;-72
2022/06/22 08:48:08;;;;;;;13.68;5.60;;;22.90;99.90;;;;;;5086707;28;20027;-73
2022/06/22 08:50:53;;;;;;;13.57;5.22;;;23.00;99.90;;;;;;5110459;28;20049;-72
2022/06/22 08:53:34;;;;;;;6.68;4.43;;;23.10;99.90;;;;;;5092217;28;20023;-73
2022/06/22 08:56:11;;;;;;;11.50;5.35;;;23.10;99.90;;;;;;5094241;28;20022;-73
2022/06/22 08:59:07;;;;;;;9.98;4.43;;;23.10;99.90;;;;;;5097110;28;20055;-73
2022/06/22 09:01:54;;;;;;;10.95;3.95;;;23.10;99.90;;;;;;5092908;28;20020;-73
2022/06/22 09:04:45;;;;;;;8.75;4.45;;;23.10;99.90;;;;;;5094326;28;20028;-74
2022/06/22 09:07:27;;;;;;;12.48;4.03;;;23.30;99.90;;;;;;5082712;28;20507;-74
2022/06/22 09:10:12;;;;;;;9.50;4.45;;;23.20;99.90;;;;;;5089452;28;20052;-73
2022/06/22 09:12:58;;;;;;;6.18;4.50;;;23.20;99.90;;;;;;5092527;28;20027;-73
2022/06/22 09:15:33;;;;;;;9.45;3.85;;;23.30;99.90;;;;;;5090068;28;20086;-73
2022/06/22 09:18:22;;;;;;;6.25;3.55;;;23.40;99.90;;;;;;5094201;28;20154;-73
2022/06/22 09:21:35;;;;;;;7.68;2.90;;;23.60;99.90;;;;;;5084202;28;20040;-74
2022/06/22 09:24:13;;;;;;;5.88;3.42;;;23.70;99.90;;;;;;5092973;28;20029;-74
2022/06/22 09:26:38;;;;;;;6.90;3.50;;;23.80;99.90;;;;;;5097824;28;20024;-73
2022/06/22 09:29:22;;;;;;;5.00;3.13;;;23.80;99.90;;;;;;5096244;28;20031;-73
2022/06/22 09:32:21;;;;;;;6.28;3.13;;;23.80;99.90;;;;;;5086676;28;20052;-73
2022/06/22 09:34:59;;;;;;;9.88;3.13;;;23.80;99.90;;;;;;5081116;28;20024;-74
2022/06/22 09:37:37;;;;;;;8.50;3.42;;;24.00;99.90;;;;;;5083942;28;20081;-73
2022/06/22 09:40:29;;;;;;;5.20;2.92;;;24.20;99.90;;;;;;5084108;28;20397;-74
2022/06/22 09:43:06;;;;;;;5.22;2.95;;;24.40;99.90;;;;;;5085019;28;20047;-73
2022/06/22 09:45:41;;;;;;;7.75;2.45;;;24.80;99.90;;;;;;5091244;28;20106;-74
2022/06/22 09:48:50;;;;;;;4.22;2.97;;;25.10;99.90;;;;;;5086555;28;20032;-74
2022/06/22 09:51:30;;;;;;;6.13;3.22;;;25.10;99.90;;;;;;5087178;28;20040;-74
2022/06/22 09:54:07;;;;;;;12.10;3.28;;;25.40;99.90;;;;;;5085981;28;20024;-74
2022/06/22 09:56:36;;;;;;;5.22;2.78;;;25.90;99.90;;;;;;5092368;28;20028;-74
2022/06/22 09:59:21;;;;;;;6.45;3.33;;;26.40;99.90;;;;;;5096099;28;20497;-75
2022/06/22 10:02:12;;;;;;;6.85;2.72;;;26.60;99.90;;;;;;5094012;28;20020;-75
2022/06/22 10:04:57;;;;;;;9.80;2.97;;;26.50;99.90;;;;;;5094663;28;20030;-74
2022/06/22 10:07:29;;;;;;;6.20;3.03;;;26.30;99.90;;;;;;5090515;28;20092;-75
2022/06/22 10:10:31;;;;;;;5.57;3.17;;;26.00;99.90;;;;;;5091561;28;20043;-74
2022/06/22 10:13:24;;;;;;;12.25;2.90;;;25.90;99.90;;;;;;5089812;28;20048;-75
2022/06/22 10:16:09;;;;;;;5.88;2.50;;;25.90;99.90;;;;;;5093093;28;20047;-74
2022/06/22 10:18:59;;;;;;;4.05;2.70;;;25.80;99.90;;;;;;5095581;28;20034;-75
2022/06/22 10:21:46;;;;;;;6.15;3.00;;;25.50;99.90;;;;;;5084115;28;20395;-75
2022/06/22 10:24:23;;;;;;;4.60;2.58;;;25.30;99.90;;;;;;5092805;28;20020;-74
2022/06/22 10:27:27;;;;;;;4.60;2.83;;;25.60;99.90;;;;;;5076871;28;20051;-74
2022/06/22 10:30:11;;;;;;;5.82;2.60;;;25.80;99.90;;;;;;5079505;28;20544;-75
2022/06/22 10:32:52;;;;;;;6.63;3.03;;;25.80;99.90;;;;;;5091148;28;20028;-74
2022/06/22 10:35:24;;;;;;;11.07;3.45;;;25.90;99.90;;;;;;5084252;28;20067;-75
2022/06/22 10:38:02;;;;;;;4.85;2.97;;;25.80;99.90;;;;;;5085575;28;20108;-74
2022/06/22 10:46:28;;;;;;;4.28;3.10;;;26.20;99.90;;;;;;5088465;28;20032;-74
2022/06/22 10:49:15;;;;;;;4.95;2.72;;;26.90;99.90;;;;;;5082904;28;20064;-74
2022/06/22 10:51:54;;;;;;;6.68;2.70;;;27.20;99.90;;;;;;5092557;28;20097;-73
2022/06/22 10:54:40;;;;;;;11.48;3.05;;;27.20;99.70;;;;;;5094064;28;20036;-74
2022/06/22 10:57:25;;;;;;;10.48;3.40;;;27.50;99.90;;;;;;5043365;28;20097;-73
2022/06/22 11:00:18;;;;;;;11.02;3.08;;;27.60;99.90;;;;;;5080023;28;20028;-74
2022/06/22 11:03:16;;;;;;;11.85;3.45;;;27.60;99.80;;;;;;5079626;28;20055;-75
2022/06/22 11:05:55;;;;;;;8.13;3.10;;;27.30;98.80;;;;;;5087980;28;20024;-74
2022/06/22 11:08:49;;;;;;;4.73;2.90;;;27.00;99.00;;;;;;5085268;28;20093;-74
2022/06/22 11:11:43;;;;;;;6.00;3.05;;;26.70;99.90;;;;;;5087179;28;20032;-74
2022/06/22 11:14:28;;;;;;;5.32;2.90;;;26.90;99.90;;;;;;5086039;28;20539;-74
2022/06/22 11:17:20;;;;;;;5.20;2.85;;;27.20;99.90;;;;;;5088200;28;20035;-74
2022/06/22 11:20:20;;;;;;;8.45;3.35;;;27.30;99.90;;;;;;5084880;28;20028;-74
2022/06/22 11:22:49;;;;;;;8.85;2.72;;;27.40;98.50;;;;;;5093029;28;20477;-74
2022/06/22 11:31:45;;;;;;;4.80;2.22;;;27.50;98.80;;;;;;5076987;28;20116;-74
2022/06/22 11:34:45;;;;;;;5.57;2.65;;;27.50;99.20;;;;;;5079178;28;20013;-75
2022/06/22 11:37:49;;;;;;;4.17;2.53;;;27.70;98.90;;;;;;5080424;28;20031;-74
2022/06/22 11:40:20;;;;;;;6.68;3.13;;;27.80;98.20;;;;;;5081597;28;20150;-74
2022/06/22 11:42:58;;;;;;;10.00;3.00;;;27.80;98.10;;;;;;5082388;28;20020;-74
2022/06/22 11:45:51;;;;;;;8.80;3.30;;;28.10;98.40;;;;;;5086390;28;20433;-75
2022/06/22 11:48:38;;;;;;;7.18;2.90;;;28.20;96.90;;;;;;5084372;28;20446;-75
2022/06/22 11:51:26;;;;;;;7.28;2.97;;;28.50;98.50;;;;;;5087467;28;20064;-75
2022/06/22 11:54:14;;;;;;;5.53;2.88;;;28.50;97.40;;;;;;5087295;28;20424;-75
2022/06/22 11:56:55;;;;;;;8.70;3.00;;;28.50;97.40;;;;;;5094766;28;20043;-75
2022/06/22 11:59:45;;;;;;;6.65;2.90;;;28.40;95.50;;;;;;5095814;28;20034;-74
2022/06/22 12:02:47;;;;;;;7.82;2.65;;;28.10;94.90;;;;;;5089474;28;20107;-75
2022/06/22 12:05:47;;;;;;;10.10;2.85;;;28.00;94.50;;;;;;5073323;28;20028;-74
2022/06/22 12:08:39;;;;;;;11.77;3.20;;;27.80;94.50;;;;;;5089877;28;20078;-74
2022/06/22 12:11:32;;;;;;;11.80;3.95;;;27.90;95.80;;;;;;5087751;28;20035;-74
2022/06/22 12:17:26;;;;;;;5.35;2.47;;;27.80;94.30;;;;;;5089259;28;20035;-74
2022/06/22 12:20:10;;;;;;;6.70;3.17;;;28.10;94.50;;;;;;5087468;28;20102;-75
2022/06/22 12:22:48;;;;;;;6.18;2.72;;;28.50;96.40;;;;;;5092648;28;20028;-72
2022/06/22 12:25:49;;;;;;;9.63;3.00;;;29.00;94.90;;;;;;5094901;28;20032;-73
2022/06/22 12:28:38;;;;;;;4.75;2.13;;;29.30;93.70;;;;;;5089718;28;20028;-72
2022/06/22 12:31:19;;;;;;;5.55;2.80;;;29.70;92.50;;;;;;5099344;28;20633;-72
2022/06/22 12:34:03;;;;;;;9.80;2.70;;;30.10;92.50;;;;;;5085746;28;20095;-72
2022/06/22 12:36:32;;;;;;;4.82;2.33;;;29.70;90.60;;;;;;5081320;28;20016;-73
2022/06/22 12:39:15;;;;;;;6.22;2.05;;;29.40;90.80;;;;;;5085541;28;20097;-73
2022/06/22 12:42:05;;;;;;;10.32;3.00;;;29.20;91.00;;;;;;5084521;28;20021;-72
2022/06/22 12:44:55;;;;;;;6.82;2.50;;;29.40;92.40;;;;;;5083828;28;20024;-72
2022/06/22 12:47:53;;;;;;;7.78;2.55;;;29.70;91.10;;;;;;5086027;28;20043;-74
2022/06/22 12:50:53;;;;;;;8.55;2.28;;;29.50;90.20;;;;;;5066678;28;20503;-73
2022/06/22 12:53:27;;;;;;;5.10;2.60;;;29.90;91.70;;;;;;5090340;28;20020;-73
2022/06/22 12:56:07;;;;;;;6.18;2.05;;;30.40;91.70;;;;;;5093777;28;20427;-72
2022/06/22 12:58:45;;;;;;;7.30;2.67;;;30.90;91.60;;;;;;5095334;28;20020;-72
2022/06/22 13:01:11;;;;;;;3.85;2.13;;;31.10;89.00;;;;;;5093288;28;20556;-74
2022/06/22 13:03:53;;;;;;;9.70;2.90;;;31.10;89.10;;;;;;5096641;28;20028;-74
2022/06/22 13:06:22;;;;;;;9.27;3.08;;;31.40;85.70;;;;;;5096998;28;20446;-74
2022/06/22 13:08:48;;;;;;;7.20;2.38;;;31.40;85.30;;;;;;5083791;28;20012;-73
2022/06/22 13:11:21;;;;;;;10.32;2.60;;;31.50;83.80;;;;;;5093803;28;20024;-74
2022/06/22 13:14:07;;;;;;;8.20;2.20;;;31.20;83.30;;;;;;5095030;28;20028;-73
2022/06/22 13:17:08;;;;;;;8.80;2.63;;;30.80;90.30;;;;;;5092451;28;20551;-74
2022/06/22 13:20:02;;;;;;;8.40;3.13;;;30.40;86.30;;;;;;5068054;28;20115;-73
2022/06/22 13:22:41;;;;;;;8.60;3.03;;;29.90;85.80;;;;;;5088490;28;20035;-73
2022/06/22 13:25:28;;;;;;;9.37;3.50;;;29.40;88.30;;;;;;5091097;28;20081;-73
2022/06/22 13:28:10;;;;;;;10.15;2.60;;;29.60;91.10;;;;;;5089318;28;20488;-72
2022/06/22 13:30:45;;;;;;;6.43;2.70;;;29.70;90.80;;;;;;5092337;28;20527;-73
2022/06/22 13:33:25;;;;;;;6.82;2.30;;;30.10;91.60;;;;;;5096678;28;20017;-73
2022/06/22 13:35:56;;;;;;;5.43;2.95;;;30.40;89.70;;;;;;5097183;28;20016;-72
2022/06/22 13:38:38;;;;;;;7.57;2.85;;;30.40;87.20;;;;;;5085326;28;20032;-74
2022/06/22 13:41:31;;;;;;;9.52;2.88;;;30.50;85.30;;;;;;5123539;27;20441;-73
2022/06/22 13:44:15;;;;;;;9.38;2.60;;;30.50;87.40;;;;;;5082898;28;20103;-73
2022/06/22 13:47:28;;;;;;;8.40;3.08;;;31.20;85.90;;;;;;5089267;28;20028;-73
2022/06/22 13:50:30;;;;;;;10.95;2.85;;;31.70;82.50;;;;;;5079788;28;20051;-73
2022/06/22 13:53:11;;;;;;;7.53;2.80;;;32.20;82.30;;;;;;5085745;28;20549;-73
2022/06/22 13:55:47;;;;;;;8.98;3.72;;;32.00;79.10;;;;;;5090457;28;20049;-74
2022/06/22 13:58:34;;;;;;;10.52;2.33;;;31.90;78.80;;;;;;5090196;28;20016;-73
2022/06/22 14:01:12;;;;;;;6.82;2.38;;;31.40;80.30;;;;;;5096336;28;20111;-73